createdAt,value
2022-08-04T00:01:06.979Z,25.72
2022-08-04T00:03:33.081Z,25.79
2022-08-04T00:05:59.137Z,25.74
2022-08-04T00:08:25.178Z,25.70
2022-08-04T00:10:51.233Z,25.74
2022-08-04T00:13:17.285Z,25.79
2022-08-04T00:15:43.319Z,25.70
2022-08-04T00:18:09.758Z,25.70
2022-08-04T00:20:35.825Z,25.67
2022-08-04T00:23:02.536Z,25.56
2022-08-04T00:25:28.634Z,25.55
2022-08-04T00:27:54.689Z,25.53
2022-08-04T00:30:20.751Z,25.49
2022-08-04T00:32:46.767Z,25.54
2022-08-04T00:35:12.789Z,25.55
2022-08-04T00:37:38.842Z,25.53
2022-08-04T00:40:04.935Z,25.48
2022-08-04T00:42:30.971Z,25.43
2022-08-04T00:44:57.023Z,25.38
2022-08-04T00:47:23.320Z,25.33
2022-08-04T00:49:49.538Z,25.40
2022-08-04T00:52:32.823Z,25.32
2022-08-04T00:54:59.557Z,25.19
2022-08-04T00:57:30.070Z,25.14
2022-08-04T01:00:00.828Z,25.14
2022-08-04T01:02:26.856Z,25.20
2022-08-04T01:04:52.883Z,24.97
2022-08-04T01:07:19.071Z,24.98
2022-08-04T01:09:45.450Z,25.06
2022-08-04T01:12:11.493Z,25.08
2022-08-04T01:14:38.089Z,25.08
2022-08-04T01:17:04.117Z,25.01
2022-08-04T01:19:30.144Z,25.03
2022-08-04T01:21:56.711Z,24.98
2022-08-04T01:24:23.627Z,24.91
2022-08-04T01:26:57.218Z,24.82
2022-08-04T01:29:24.521Z,24.82
2022-08-04T01:31:55.911Z,24.85
2022-08-04T01:34:21.939Z,24.79
2022-08-04T01:36:50.101Z,24.84
2022-08-04T01:39:16.444Z,24.74
2022-08-04T01:41:42.530Z,24.78
2022-08-04T01:44:24.640Z,24.77
2022-08-04T01:46:50.665Z,24.66
2022-08-04T01:49:17.515Z,24.64
2022-08-04T01:51:44.429Z,24.63
2022-08-04T01:54:10.490Z,24.52
2022-08-04T01:56:36.517Z,24.50
2022-08-04T01:59:02.570Z,24.50
2022-08-04T02:01:28.623Z,24.55
2022-08-04T02:04:20.715Z,24.60
2022-08-04T02:06:40.792Z,24.60
2022-08-04T02:09:06.824Z,24.59
2022-08-04T02:11:32.836Z,24.52
2022-08-04T02:13:58.904Z,24.53
2022-08-04T02:16:24.960Z,24.52
2022-08-04T02:18:50.997Z,24.52
2022-08-04T02:21:17.031Z,24.40
2022-08-04T02:23:43.049Z,24.42
2022-08-04T02:26:19.338Z,24.31
2022-08-04T02:28:48.882Z,24.18
2022-08-04T02:31:14.935Z,24.34
2022-08-04T02:33:40.967Z,24.30
2022-08-04T02:36:07.971Z,24.32
2022-08-04T02:38:34.028Z,24.22
2022-08-04T02:41:00.509Z,24.22
2022-08-04T02:43:52.016Z,24.24
2022-08-04T02:46:17.752Z,24.21
2022-08-04T02:48:44.272Z,24.27
2022-08-04T02:51:10.298Z,24.23
2022-08-04T02:53:36.339Z,24.24
2022-08-04T02:56:02.431Z,24.32
2022-08-04T02:58:28.483Z,23.99
2022-08-04T03:00:55.182Z,23.96
2022-08-04T03:03:21.283Z,24.02
2022-08-04T03:05:49.972Z,23.89
2022-08-04T03:08:27.372Z,23.86
2022-08-04T03:10:53.395Z,23.77
2022-08-04T03:13:19.996Z,23.69
2022-08-04T03:15:46.080Z,23.70
2022-08-04T03:18:12.105Z,23.68
2022-08-04T03:20:38.126Z,23.76
2022-08-04T03:23:13.337Z,23.64
2022-08-04T03:25:57.516Z,23.85
2022-08-04T03:28:23.804Z,23.91
2022-08-04T03:30:49.835Z,23.76
2022-08-04T03:33:15.859Z,23.67
2022-08-04T03:35:41.917Z,23.64
2022-08-04T03:38:07.949Z,23.68
2022-08-04T03:40:33.963Z,23.83
2022-08-04T03:43:00.333Z,23.70
2022-08-04T03:45:26.378Z,23.55
2022-08-04T03:47:52.402Z,23.54
2022-08-04T03:50:18.460Z,23.57
2022-08-04T03:52:45.496Z,23.51
2022-08-04T03:55:13.475Z,23.51
2022-08-04T03:57:39.549Z,23.55
2022-08-04T04:00:06.658Z,23.67
2022-08-04T04:02:32.811Z,23.73
2022-08-04T04:04:58.960Z,23.67
2022-08-04T04:07:35.917Z,23.62
2022-08-04T04:10:06.181Z,23.56
2022-08-04T04:12:33.484Z,23.62
2022-08-04T04:14:59.508Z,23.62
2022-08-04T04:17:25.525Z,23.66
2022-08-04T04:19:51.555Z,23.63
2022-08-04T04:22:24.745Z,23.64
2022-08-04T04:24:50.803Z,23.59
2022-08-04T04:27:16.843Z,23.55
2022-08-04T04:29:42.871Z,23.55
2022-08-04T04:32:08.939Z,23.60
2022-08-04T04:34:34.953Z,23.65
2022-08-04T04:37:00.979Z,23.60
2022-08-04T04:39:27.060Z,23.78
2022-08-04T04:41:53.136Z,23.80
2022-08-04T04:44:19.807Z,23.99
2022-08-04T04:46:46.441Z,24.16
2022-08-04T04:49:12.879Z,24.20
2022-08-04T04:51:40.961Z,24.32
2022-08-04T04:54:07.039Z,24.62
2022-08-04T04:56:33.045Z,24.54
2022-08-04T04:58:59.089Z,24.71
2022-08-04T05:01:25.526Z,24.93
2022-08-04T05:03:51.604Z,25.07
2022-08-04T05:06:17.627Z,25.33
2022-08-04T05:08:47.401Z,25.53
2022-08-04T05:11:15.079Z,25.74
2022-08-04T05:14:38.594Z,25.89
2022-08-04T05:16:27.173Z,26.05
2022-08-04T05:18:53.230Z,26.30
2022-08-04T05:21:19.642Z,26.47
2022-08-04T05:23:45.721Z,26.73
2022-08-04T05:26:12.522Z,26.80
2022-08-04T05:28:39.323Z,26.91
2022-08-04T05:31:05.439Z,27.16
2022-08-04T05:33:31.516Z,27.47
2022-08-04T05:36:18.397Z,27.47
2022-08-04T05:38:45.841Z,27.69
2022-08-04T05:41:11.901Z,27.72
2022-08-04T05:43:38.287Z,27.91
2022-08-04T05:46:04.332Z,28.13
2022-08-04T05:48:30.349Z,28.27
2022-08-04T05:51:00.608Z,28.49
2022-08-04T05:53:27.197Z,28.58
2022-08-04T05:55:58.850Z,28.68
2022-08-04T05:58:25.502Z,28.96
2022-08-04T06:00:52.499Z,28.99
2022-08-04T06:05:54.207Z,29.15
2022-08-04T06:08:20.236Z,29.35
2022-08-04T06:10:46.182Z,29.53
2022-08-04T06:13:48.920Z,29.53
2022-08-04T06:15:58.103Z,29.63
2022-08-04T06:18:32.864Z,29.76
2022-08-04T06:21:01.674Z,29.93
2022-08-04T06:23:29.674Z,29.87
2022-08-04T06:25:56.397Z,29.92
2022-08-04T06:28:23.128Z,30.09
2022-08-04T06:30:49.160Z,30.22
2022-08-04T06:33:15.282Z,30.11
2022-08-04T06:35:41.735Z,30.24
2022-08-04T06:38:07.733Z,30.20
2022-08-04T06:40:34.434Z,30.20
2022-08-04T06:43:00.724Z,30.13
2022-08-04T06:45:26.715Z,30.20
2022-08-04T06:47:52.674Z,30.35
2022-08-04T06:51:32.343Z,30.37
2022-08-04T06:53:04.681Z,30.57
2022-08-04T06:55:30.632Z,30.82
2022-08-04T06:58:00.919Z,30.90
2022-08-04T07:00:28.731Z,30.79
2022-08-04T07:02:54.665Z,31.00
2022-08-04T07:05:20.605Z,31.34
2022-08-04T07:07:56.948Z,31.62
2022-08-04T07:10:25.256Z,31.60
2022-08-04T07:12:54.009Z,31.33
2022-08-04T07:15:20.217Z,31.51
2022-08-04T07:17:46.166Z,31.54
2022-08-04T07:20:15.871Z,31.79
2022-08-04T07:23:00.154Z,31.86
2022-08-04T07:25:58.453Z,31.98
2022-08-04T07:28:12.072Z,32.12
2022-08-04T07:30:38.061Z,32.17
2022-08-04T07:33:04.021Z,31.86
2022-08-04T07:36:09.223Z,32.28
2022-08-04T07:38:16.182Z,32.39
2022-08-04T07:40:42.231Z,32.49
2022-08-04T07:43:08.167Z,32.25
2022-08-04T07:45:34.142Z,32.39
2022-08-04T07:48:05.023Z,32.17
2022-08-04T07:50:31.894Z,32.39
2022-08-04T07:53:22.410Z,32.45
2022-08-04T07:55:43.773Z,32.58
2022-08-04T07:58:09.773Z,32.33
2022-08-04T08:00:35.711Z,32.25
2022-08-04T08:03:01.720Z,32.44
2022-08-04T08:05:27.758Z,32.45
2022-08-04T08:07:54.754Z,32.19
2022-08-04T08:10:20.973Z,32.18
2022-08-04T08:12:51.209Z,31.72
2022-08-04T08:15:18.169Z,32.14
2022-08-04T08:17:58.540Z,32.47
2022-08-04T08:20:29.628Z,32.84
2022-08-04T08:22:56.254Z,33.07
2022-08-04T08:25:22.199Z,33.29
2022-08-04T08:27:56.116Z,33.58
2022-08-04T08:30:23.432Z,33.41
2022-08-04T08:32:50.321Z,33.82
2022-08-04T08:35:17.096Z,33.82
2022-08-04T08:37:43.553Z,33.64
2022-08-04T08:40:09.611Z,34.14
2022-08-04T08:42:35.561Z,33.68
2022-08-04T08:45:01.512Z,33.58
2022-08-04T08:47:27.507Z,33.94
2022-08-04T08:50:01.921Z,33.97
2022-08-04T08:52:56.579Z,34.16
2022-08-04T08:55:15.886Z,34.48
2022-08-04T08:57:59.425Z,34.80
2022-08-04T09:00:31.584Z,34.09
2022-08-04T09:03:04.403Z,34.29
2022-08-04T09:05:31.139Z,34.23
2022-08-04T09:07:57.104Z,34.44
2022-08-04T09:10:23.092Z,34.76
2022-08-04T09:12:49.039Z,34.20
2022-08-04T09:15:15.827Z,33.50
2022-08-04T09:17:42.769Z,33.68
2022-08-04T09:20:08.719Z,33.95
2022-08-04T09:22:34.656Z,34.44
2022-08-04T09:25:00.658Z,35.07
2022-08-04T09:27:26.602Z,35.39
2022-08-04T09:29:52.542Z,35.47
2022-08-04T09:32:18.542Z,35.66
2022-08-04T09:34:44.527Z,35.02
2022-08-04T09:37:10.471Z,34.81
2022-08-04T09:39:36.512Z,35.09
2022-08-04T09:42:02.462Z,34.71
2022-08-04T09:44:50.936Z,34.71
2022-08-04T09:47:15.006Z,35.05
2022-08-04T09:49:41.665Z,35.11
2022-08-04T09:52:08.276Z,34.68
2022-08-04T09:54:34.818Z,34.56
2022-08-04T09:57:01.228Z,34.78
2022-08-04T09:59:27.329Z,35.77
2022-08-04T10:01:58.878Z,36.53
2022-08-04T10:04:26.363Z,36.55
2022-08-04T10:06:52.861Z,36.14
2022-08-04T10:09:20.863Z,36.06
2022-08-04T10:11:55.419Z,35.36
2022-08-04T10:14:23.283Z,35.69
2022-08-04T10:16:49.902Z,36.09
2022-08-04T10:19:16.462Z,36.71
2022-08-04T10:21:58.938Z,36.64
2022-08-04T10:24:26.009Z,36.79
2022-08-04T10:26:57.195Z,37.20
2022-08-04T10:29:24.188Z,36.66
2022-08-04T10:31:50.865Z,36.63
2022-08-04T10:34:17.358Z,36.97
2022-08-04T10:36:43.844Z,37.20
2022-08-04T10:39:13.971Z,37.04
2022-08-04T10:41:59.690Z,36.82
2022-08-04T10:44:26.017Z,36.99
2022-08-04T10:46:52.595Z,37.12
2022-08-04T10:49:21.584Z,37.34
2022-08-04T10:51:57.505Z,37.83
2022-08-04T10:54:25.532Z,37.81
2022-08-04T10:56:55.158Z,36.36
2022-08-04T10:59:23.009Z,36.19
2022-08-04T11:01:59.871Z,36.86
2022-08-04T11:04:29.148Z,36.18
2022-08-04T11:06:55.560Z,36.41
2022-08-04T11:09:22.907Z,35.79
2022-08-04T11:11:56.948Z,35.65
2022-08-04T11:14:27.979Z,36.01
2022-08-04T11:16:54.730Z,37.00
2022-08-04T11:19:23.389Z,37.83
2022-08-04T11:22:09.893Z,36.33
2022-08-04T11:24:36.526Z,36.02
2022-08-04T11:27:03.083Z,35.50
2022-08-04T11:29:29.740Z,35.77
2022-08-04T11:31:55.700Z,36.89
2022-08-04T11:34:22.804Z,37.01
2022-08-04T11:36:49.599Z,37.61
2022-08-04T11:39:16.347Z,37.70
2022-08-04T11:41:42.594Z,37.86
2022-08-04T11:44:12.713Z,38.39
2022-08-04T11:46:38.930Z,37.93
2022-08-04T11:49:05.618Z,38.30
2022-08-04T11:51:31.898Z,38.48
2022-08-04T11:53:58.477Z,38.57
2022-08-04T11:56:36.461Z,38.09
2022-08-04T11:59:04.753Z,38.64
2022-08-04T12:01:30.779Z,37.72
2022-08-04T12:04:00.452Z,37.26
2022-08-04T12:06:31.722Z,37.47
2022-08-04T12:08:58.327Z,38.03
2022-08-04T12:11:27.963Z,37.63
2022-08-04T12:14:00.218Z,38.18
2022-08-04T12:16:30.222Z,38.84
2022-08-04T12:21:53.040Z,38.70
2022-08-04T12:24:22.780Z,38.83
2022-08-04T12:26:49.003Z,38.72
2022-08-04T12:29:15.542Z,38.22
2022-08-04T12:31:42.157Z,37.93
2022-08-04T12:34:08.675Z,38.12
2022-08-04T12:36:35.098Z,37.73
2022-08-04T12:39:01.735Z,38.20
2022-08-04T12:41:28.513Z,38.89
2022-08-04T12:43:55.925Z,38.94
2022-08-04T12:46:22.599Z,38.35
2022-08-04T12:48:49.181Z,39.14
2022-08-04T12:52:05.666Z,38.92
2022-08-04T12:54:02.350Z,38.70
2022-08-04T12:56:28.736Z,38.50
2022-08-04T12:58:55.320Z,38.70
2022-08-04T13:02:08.453Z,39.37
2022-08-04T13:04:08.398Z,39.74
2022-08-04T13:06:34.851Z,38.93
2022-08-04T13:09:01.239Z,38.65
2022-08-04T13:11:27.707Z,38.26
2022-08-04T13:14:17.246Z,37.65
2022-08-04T13:16:42.312Z,37.42
2022-08-04T13:19:13.122Z,37.78
2022-08-04T13:21:49.874Z,38.22
2022-08-04T13:24:32.745Z,38.53
2022-08-04T13:27:03.828Z,38.37
2022-08-04T13:29:58.779Z,38.74
2022-08-04T13:32:16.898Z,37.94
2022-08-04T13:34:49.050Z,37.46
2022-08-04T13:37:21.039Z,38.05
2022-08-04T13:39:55.639Z,38.62
2022-08-04T13:42:22.722Z,39.56
2022-08-04T13:44:49.666Z,39.89
2022-08-04T15:09:47.376Z,38.46
2022-08-04T15:12:13.362Z,38.35
2022-08-04T15:14:39.316Z,38.99
2022-08-04T15:17:09.845Z,39.63
2022-08-04T15:19:38.217Z,39.94
2022-08-04T15:22:04.159Z,38.63
2022-08-04T15:24:31.068Z,39.08
2022-08-04T15:26:57.017Z,38.46
2022-08-04T15:29:22.988Z,38.58
2022-08-04T15:32:04.437Z,38.17
2022-08-04T15:34:31.246Z,37.77
2022-08-04T15:36:57.734Z,37.32
2022-08-04T15:39:23.918Z,37.64
2022-08-04T15:41:54.961Z,38.39
2022-08-04T15:44:21.613Z,38.55
2022-08-04T15:46:47.602Z,38.15
2022-08-04T15:49:13.550Z,38.17
2022-08-04T15:51:39.543Z,37.42
2022-08-04T15:54:08.526Z,37.86
2022-08-04T15:56:42.988Z,38.16
2022-08-04T15:59:15.692Z,37.95
2022-08-04T16:02:11.517Z,37.78
2022-08-04T16:04:36.235Z,37.83
2022-08-04T16:07:02.275Z,37.90
2022-08-04T16:09:46.347Z,37.90
2022-08-04T16:12:13.774Z,37.64
2022-08-04T16:14:39.883Z,37.94
2022-08-04T16:17:05.869Z,37.68
2022-08-04T16:19:35.029Z,38.31
2022-08-04T16:22:01.626Z,38.46
2022-08-04T16:24:27.566Z,38.66
2022-08-04T16:26:54.757Z,38.49
2022-08-04T16:29:22.526Z,38.09
2022-08-04T16:31:48.510Z,38.26
2022-08-04T16:34:39.468Z,38.12
2022-08-04T16:37:00.410Z,37.60
2022-08-04T16:39:26.436Z,36.93
2022-08-04T16:41:52.437Z,37.11
2022-08-04T16:44:43.002Z,37.60
2022-08-04T16:47:21.328Z,38.01
2022-08-04T16:49:49.505Z,37.95
2022-08-04T16:52:18.080Z,37.84
2022-08-04T16:54:44.028Z,36.44
2022-08-04T16:57:09.971Z,36.58
2022-08-04T16:59:35.981Z,36.65
2022-08-04T17:02:02.016Z,37.17
2022-08-04T17:04:28.024Z,36.74
2022-08-04T17:06:54.365Z,36.87
2022-08-04T17:09:23.340Z,37.06
2022-08-04T17:11:52.254Z,36.94
2022-08-04T17:14:19.102Z,36.71
2022-08-04T17:16:45.092Z,36.57
2022-08-04T17:19:19.928Z,36.65
2022-08-04T17:21:50.011Z,36.37
2022-08-04T17:24:17.980Z,36.12
2022-08-04T17:26:45.313Z,36.16
2022-08-04T17:29:19.826Z,36.15
2022-08-04T17:31:46.193Z,35.99
2022-08-04T17:37:17.790Z,35.48
2022-08-04T17:39:44.493Z,35.42
2022-08-04T17:42:15.189Z,35.73
2022-08-04T17:44:41.884Z,35.87
2022-08-04T17:47:12.454Z,35.81
2022-08-04T17:49:52.870Z,35.68
2022-08-04T17:52:39.686Z,35.60
2022-08-04T17:55:05.319Z,35.57
2022-08-04T17:57:31.259Z,35.51
2022-08-04T17:59:59.362Z,35.50
2022-08-04T18:02:31.763Z,35.33
2022-08-04T18:05:07.011Z,35.35
2022-08-04T18:08:45.968Z,35.31
2022-08-04T18:10:30.994Z,35.18
2022-08-04T18:13:00.976Z,35.05
2022-08-04T18:15:26.939Z,35.01
2022-08-04T18:18:22.562Z,34.89
2022-08-04T18:20:50.238Z,34.83
2022-08-04T18:23:16.758Z,34.85
2022-08-04T18:25:51.166Z,34.83
2022-08-04T18:28:22.470Z,34.75
2022-08-04T18:30:55.495Z,34.60
2022-08-04T18:33:40.336Z,34.39
2022-08-04T18:36:35.340Z,34.09
2022-08-04T18:38:55.692Z,33.98
2022-08-04T18:41:24.026Z,34.02
2022-08-04T18:43:55.982Z,33.97
2022-08-04T18:46:22.803Z,33.83
2022-08-04T18:48:52.848Z,33.76
2022-08-04T18:54:04.978Z,33.44
2022-08-04T18:56:32.862Z,33.43
2022-08-04T18:59:00.045Z,33.44
2022-08-04T19:01:30.211Z,33.38
2022-08-04T19:04:32.854Z,33.36
2022-08-04T19:07:00.981Z,33.21
2022-08-04T19:09:51.755Z,33.04
2022-08-04T19:12:15.750Z,32.83
2022-08-04T19:14:57.763Z,32.84
2022-08-04T19:20:25.712Z,32.66
2022-08-04T19:24:29.658Z,32.59
2022-08-04T19:26:01.711Z,32.55
2022-08-04T19:28:29.301Z,32.41
2022-08-04T19:30:56.937Z,32.38
2022-08-04T19:33:25.376Z,32.33
2022-08-04T19:35:51.559Z,32.26
2022-08-04T19:38:17.507Z,32.09
2022-08-04T19:40:50.586Z,32.00
2022-08-04T19:43:19.108Z,31.88
2022-08-04T19:45:45.933Z,31.85
2022-08-04T19:48:19.346Z,31.78
2022-08-04T19:50:45.706Z,31.68
2022-08-04T19:53:18.902Z,31.57
2022-08-04T19:55:49.661Z,31.47
2022-08-04T19:58:16.245Z,31.40
2022-08-04T20:00:44.811Z,31.40
2022-08-04T20:03:20.152Z,31.29
2022-08-04T20:05:55.189Z,31.18
2022-08-04T20:08:21.789Z,31.12
2022-08-04T20:10:51.953Z,31.11
2022-08-04T20:13:18.677Z,31.09
2022-08-04T20:15:57.294Z,30.93
2022-08-04T20:18:36.645Z,30.83
2022-08-04T20:21:11.331Z,30.86
2022-08-04T20:23:48.466Z,30.82
2022-08-04T20:26:16.832Z,30.74
2022-08-04T20:28:42.814Z,30.63
2022-08-04T20:31:12.026Z,30.55
2022-08-04T20:33:49.383Z,30.52
2022-08-04T20:36:20.913Z,30.47
2022-08-04T20:38:52.007Z,30.41
2022-08-04T20:41:19.163Z,30.27
2022-08-04T20:43:45.121Z,30.36
2022-08-04T20:46:18.088Z,30.30
2022-08-04T20:48:44.827Z,30.17
2022-08-04T20:51:10.832Z,30.10
2022-08-04T20:53:53.145Z,30.13
2022-08-04T20:56:31.038Z,30.18
2022-08-04T20:58:57.619Z,29.99
2022-08-04T21:01:23.620Z,29.87
2022-08-04T21:04:00.645Z,29.84
2022-08-04T21:06:26.968Z,29.76
2022-08-04T21:08:57.301Z,29.65
2022-08-04T21:11:23.742Z,29.63
2022-08-04T21:13:52.165Z,29.60
2022-08-04T21:16:53.959Z,29.56
2022-08-04T21:19:04.714Z,29.48
2022-08-04T21:21:35.624Z,29.49
2022-08-04T21:24:01.766Z,29.44
2022-08-04T21:26:27.789Z,29.46
2022-08-04T21:28:53.783Z,29.47
2022-08-04T21:34:05.707Z,29.28
2022-08-04T21:36:31.641Z,29.32
2022-08-04T21:39:00.072Z,29.39
2022-08-04T21:41:27.300Z,29.20
2022-08-04T21:43:54.127Z,29.18
2022-08-04T21:46:20.937Z,29.05
2022-08-04T21:52:00.245Z,29.04
2022-08-04T21:54:18.884Z,28.93
2022-08-04T21:59:31.224Z,28.73
2022-08-04T22:01:57.247Z,28.69
2022-08-04T22:04:26.055Z,28.77
2022-08-04T22:06:52.748Z,28.72
2022-08-04T22:09:19.034Z,28.58
2022-08-04T22:11:48.734Z,28.56
2022-08-04T22:14:15.242Z,28.67
2022-08-04T22:16:41.178Z,28.66
2022-08-04T22:19:07.105Z,28.57
2022-08-04T22:21:39.163Z,28.59
2022-08-04T22:24:14.175Z,28.13
2022-08-04T22:26:40.471Z,28.39
2022-08-04T22:29:06.413Z,28.39
2022-08-04T22:31:53.229Z,28.25
2022-08-04T22:34:22.230Z,28.33
2022-08-04T22:36:50.001Z,28.30
2022-08-04T22:39:15.982Z,28.25
2022-08-04T22:41:48.617Z,28.26
2022-08-04T22:44:25.612Z,28.13
2022-08-04T22:46:58.918Z,28.16
2022-08-04T22:49:31.404Z,28.05
2022-08-04T22:51:57.940Z,28.02
2022-08-04T22:54:26.035Z,27.95
2022-08-04T22:56:54.562Z,28.01
2022-08-04T22:59:22.559Z,27.98
2022-08-04T23:02:01.338Z,27.95
2022-08-04T23:04:27.683Z,27.87
2022-08-04T23:06:53.670Z,27.80
2022-08-04T23:09:21.963Z,27.69
2022-08-04T23:11:53.963Z,27.56
2022-08-04T23:14:28.946Z,27.57
2022-08-04T23:16:55.952Z,27.67
2022-08-04T23:19:24.757Z,27.71
2022-08-04T23:22:01.757Z,27.71
2022-08-04T23:24:29.934Z,27.68
2022-08-04T23:26:56.863Z,27.61
2022-08-04T23:29:22.927Z,27.60
2022-08-04T23:31:59.494Z,27.62
2022-08-04T23:34:26.383Z,27.58
2022-08-04T23:36:55.417Z,27.50
2022-08-04T23:39:21.516Z,27.28
2022-08-04T23:41:50.871Z,27.22
2022-08-04T23:44:25.477Z,27.09
2022-08-04T23:46:53.426Z,27.21
2022-08-04T23:49:21.923Z,27.36
2022-08-04T23:51:47.924Z,27.29
2022-08-04T23:54:15.800Z,27.26
2022-08-04T23:56:49.461Z,27.18
2022-08-04T23:59:17.994Z,27.07
